sensor_id;sensor_type;location;lat;lon;timestamp;P1;durP1;ratioP1;P2;durP2;ratioP2
51814;SDS011;37874;53.158;6.766;2024-02-15T13:40:11;3.95;;;0.65;;
51814;SDS011;37874;53.158;6.766;2024-02-15T13:42:54;3.78;;;0.63;;
51814;SDS011;37874;53.158;6.766;2024-02-15T13:45:31;1.92;;;0.88;;
51814;SDS011;37874;53.158;6.766;2024-02-15T13:48:00;2.00;;;0.82;;
51814;SDS011;37874;53.158;6.766;2024-02-15T13:50:32;2.90;;;0.70;;
51814;SDS011;37874;53.158;6.766;2024-02-15T13:53:01;3.63;;;0.93;;
51814;SDS011;37874;53.158;6.766;2024-02-15T13:55:28;7.97;;;0.70;;
51814;SDS011;37874;53.158;6.766;2024-02-15T13:57:55;3.55;;;0.73;;
51814;SDS011;37874;53.158;6.766;2024-02-15T14:00:22;5.47;;;0.70;;
51814;SDS011;37874;53.158;6.766;2024-02-15T14:02:55;1.20;;;0.70;;
51814;SDS011;37874;53.158;6.766;2024-02-15T14:05:26;2.55;;;0.90;;
51814;SDS011;37874;53.158;6.766;2024-02-15T14:07:56;1.67;;;0.65;;
51814;SDS011;37874;53.158;6.766;2024-02-15T14:13:01;3.63;;;0.70;;
51814;SDS011;37874;53.158;6.766;2024-02-15T14:15:29;3.03;;;0.60;;
51814;SDS011;37874;53.158;6.766;2024-02-15T14:17:55;1.42;;;0.70;;
51814;SDS011;37874;53.158;6.766;2024-02-15T14:20:28;1.75;;;0.55;;
51814;SDS011;37874;53.158;6.766;2024-02-15T14:22:55;3.80;;;0.77;;
51814;SDS011;37874;53.158;6.766;2024-02-15T14:25:24;1.75;;;0.70;;
51814;SDS011;37874;53.158;6.766;2024-02-15T14:27:53;1.73;;;0.60;;
51814;SDS011;37874;53.158;6.766;2024-02-15T14:30:20;1.35;;;0.40;;
51814;SDS011;37874;53.158;6.766;2024-02-15T14:33:06;3.47;;;0.60;;
51814;SDS011;37874;53.158;6.766;2024-02-15T14:35:39;4.00;;;0.77;;
51814;SDS011;37874;53.158;6.766;2024-02-15T14:38:09;3.15;;;0.60;;
51814;SDS011;37874;53.158;6.766;2024-02-15T14:40:49;2.38;;;0.60;;
51814;SDS011;37874;53.158;6.766;2024-02-15T14:43:25;3.05;;;0.65;;
51814;SDS011;37874;53.158;6.766;2024-02-15T14:45:57;1.55;;;0.50;;
51814;SDS011;37874;53.158;6.766;2024-02-15T14:48:25;1.50;;;0.70;;
51814;SDS011;37874;53.158;6.766;2024-02-15T14:50:52;2.38;;;0.60;;
51814;SDS011;37874;53.158;6.766;2024-02-15T14:53:20;1.55;;;0.65;;
51814;SDS011;37874;53.158;6.766;2024-02-15T15:00:50;3.50;;;0.73;;
51814;SDS011;37874;53.158;6.766;2024-02-15T15:03:18;1.40;;;0.73;;
51814;SDS011;37874;53.158;6.766;2024-02-15T15:05:47;1.38;;;0.63;;
51814;SDS011;37874;53.158;6.766;2024-02-15T15:08:49;1.88;;;0.70;;
51814;SDS011;37874;53.158;6.766;2024-02-15T15:14:34;2.53;;;0.70;;
51814;SDS011;37874;53.158;6.766;2024-02-15T15:17:00;2.58;;;0.80;;
51814;SDS011;37874;53.158;6.766;2024-02-15T15:19:28;4.57;;;1.05;;
51814;SDS011;37874;53.158;6.766;2024-02-15T15:21:55;2.35;;;0.80;;
51814;SDS011;37874;53.158;6.766;2024-02-15T15:24:22;3.33;;;1.05;;
51814;SDS011;37874;53.158;6.766;2024-02-15T15:26:56;3.38;;;0.80;;
51814;SDS011;37874;53.158;6.766;2024-02-15T15:29:32;3.85;;;0.90;;
51814;SDS011;37874;53.158;6.766;2024-02-15T15:31:58;3.25;;;1.10;;
51814;SDS011;37874;53.158;6.766;2024-02-15T15:34:32;3.97;;;0.80;;
51814;SDS011;37874;53.158;6.766;2024-02-15T15:36:59;1.88;;;0.70;;
51814;SDS011;37874;53.158;6.766;2024-02-15T15:39:29;4.57;;;1.30;;
51814;SDS011;37874;53.158;6.766;2024-02-15T15:41:59;2.22;;;0.90;;
51814;SDS011;37874;53.158;6.766;2024-02-15T15:44:28;2.70;;;0.98;;
51814;SDS011;37874;53.158;6.766;2024-02-15T15:46:57;3.38;;;0.75;;
51814;SDS011;37874;53.158;6.766;2024-02-15T15:49:24;2.72;;;1.00;;
51814;SDS011;37874;53.158;6.766;2024-02-15T15:51:51;2.45;;;0.80;;
51814;SDS011;37874;53.158;6.766;2024-02-15T15:54:19;3.25;;;0.90;;
51814;SDS011;37874;53.158;6.766;2024-02-15T15:59:16;1.85;;;0.80;;
51814;SDS011;37874;53.158;6.766;2024-02-15T16:04:27;2.73;;;0.83;;
51814;SDS011;37874;53.158;6.766;2024-02-15T16:07:01;3.00;;;1.00;;
51814;SDS011;37874;53.158;6.766;2024-02-15T16:09:52;2.72;;;0.95;;
51814;SDS011;37874;53.158;6.766;2024-02-15T16:12:29;4.07;;;1.40;;
51814;SDS011;37874;53.158;6.766;2024-02-15T16:18:54;9.48;;;2.80;;
51814;SDS011;37874;53.158;6.766;2024-02-15T16:21:53;10.82;;;3.45;;
51814;SDS011;37874;53.158;6.766;2024-02-15T16:24:31;11.00;;;3.70;;
51814;SDS011;37874;53.158;6.766;2024-02-15T16:27:18;11.30;;;3.03;;
51814;SDS011;37874;53.158;6.766;2024-02-15T16:30:13;9.38;;;3.30;;
51814;SDS011;37874;53.158;6.766;2024-02-15T16:32:58;10.43;;;2.75;;
51814;SDS011;37874;53.158;6.766;2024-02-15T16:43:09;7.80;;;2.88;;
51814;SDS011;37874;53.158;6.766;2024-02-15T17:07:52;10.32;;;3.03;;
51814;SDS011;37874;53.158;6.766;2024-02-15T17:10:21;9.38;;;2.63;;
51814;SDS011;37874;53.158;6.766;2024-02-15T17:12:50;7.60;;;2.30;;
51814;SDS011;37874;53.158;6.766;2024-02-15T17:15:22;8.50;;;2.67;;
51814;SDS011;37874;53.158;6.766;2024-02-15T17:17:52;9.10;;;2.47;;
51814;SDS011;37874;53.158;6.766;2024-02-15T17:20:22;7.18;;;2.50;;
51814;SDS011;37874;53.158;6.766;2024-02-15T17:22:48;6.75;;;2.35;;
51814;SDS011;37874;53.158;6.766;2024-02-15T17:25:15;7.85;;;2.50;;
51814;SDS011;37874;53.158;6.766;2024-02-15T17:27:41;6.97;;;2.60;;
51814;SDS011;37874;53.158;6.766;2024-02-15T17:30:10;5.63;;;2.25;;
51814;SDS011;37874;53.158;6.766;2024-02-15T17:32:38;5.97;;;2.30;;
51814;SDS011;37874;53.158;6.766;2024-02-15T17:35:13;5.00;;;1.95;;
51814;SDS011;37874;53.158;6.766;2024-02-15T17:37:42;5.07;;;1.90;;
51814;SDS011;37874;53.158;6.766;2024-02-15T17:40:14;6.55;;;2.38;;
51814;SDS011;37874;53.158;6.766;2024-02-15T17:42:40;6.72;;;2.00;;
51814;SDS011;37874;53.158;6.766;2024-02-15T17:45:08;7.97;;;2.22;;
51814;SDS011;37874;53.158;6.766;2024-02-15T17:47:39;7.22;;;1.80;;
51814;SDS011;37874;53.158;6.766;2024-02-15T17:50:15;6.72;;;1.92;;
51814;SDS011;37874;53.158;6.766;2024-02-15T17:52:46;4.38;;;1.77;;
51814;SDS011;37874;53.158;6.766;2024-02-15T17:55:12;7.32;;;1.70;;
51814;SDS011;37874;53.158;6.766;2024-02-15T17:57:45;3.97;;;1.80;;
51814;SDS011;37874;53.158;6.766;2024-02-15T18:00:21;4.60;;;2.30;;
51814;SDS011;37874;53.158;6.766;2024-02-15T18:02:54;4.60;;;2.00;;
51814;SDS011;37874;53.158;6.766;2024-02-15T18:05:30;4.55;;;1.95;;
51814;SDS011;37874;53.158;6.766;2024-02-15T18:08:01;4.47;;;1.83;;
51814;SDS011;37874;53.158;6.766;2024-02-15T18:10:29;3.72;;;1.90;;
51814;SDS011;37874;53.158;6.766;2024-02-15T18:12:58;3.67;;;1.60;;
51814;SDS011;37874;53.158;6.766;2024-02-15T18:15:28;5.00;;;1.90;;
51814;SDS011;37874;53.158;6.766;2024-02-15T18:17:58;4.20;;;1.50;;
51814;SDS011;37874;53.158;6.766;2024-02-15T18:20:26;2.92;;;1.58;;
51814;SDS011;37874;53.158;6.766;2024-02-15T18:23:03;5.43;;;1.63;;
51814;SDS011;37874;53.158;6.766;2024-02-15T18:25:33;4.72;;;2.00;;
51814;SDS011;37874;53.158;6.766;2024-02-15T18:28:04;4.70;;;2.13;;
51814;SDS011;37874;53.158;6.766;2024-02-15T18:30:31;3.10;;;1.40;;
51814;SDS011;37874;53.158;6.766;2024-02-15T18:33:10;3.10;;;1.35;;
51814;SDS011;37874;53.158;6.766;2024-02-15T18:35:37;3.67;;;1.60;;
51814;SDS011;37874;53.158;6.766;2024-02-15T18:38:09;3.83;;;1.70;;
51814;SDS011;37874;53.158;6.766;2024-02-15T18:40:36;4.57;;;1.40;;
51814;SDS011;37874;53.158;6.766;2024-02-15T18:43:03;4.53;;;1.40;;
51814;SDS011;37874;53.158;6.766;2024-02-15T18:45:29;3.88;;;1.60;;
51814;SDS011;37874;53.158;6.766;2024-02-15T18:47:56;3.97;;;1.58;;
51814;SDS011;37874;53.158;6.766;2024-02-15T18:50:33;3.05;;;1.60;;
51814;SDS011;37874;53.158;6.766;2024-02-15T18:53:05;3.17;;;1.38;;
51814;SDS011;37874;53.158;6.766;2024-02-15T18:55:32;3.50;;;1.45;;
51814;SDS011;37874;53.158;6.766;2024-02-15T18:58:00;2.72;;;1.45;;
51814;SDS011;37874;53.158;6.766;2024-02-15T19:00:30;3.83;;;1.27;;
51814;SDS011;37874;53.158;6.766;2024-02-15T19:08:49;4.20;;;1.67;;
51814;SDS011;37874;53.158;6.766;2024-02-15T19:11:17;2.63;;;1.40;;
51814;SDS011;37874;53.158;6.766;2024-02-15T19:13:47;4.40;;;1.27;;
51814;SDS011;37874;53.158;6.766;2024-02-15T19:16:22;4.28;;;1.33;;
51814;SDS011;37874;53.158;6.766;2024-02-15T19:19:03;3.03;;;1.50;;
51814;SDS011;37874;53.158;6.766;2024-02-15T19:32:02;3.40;;;1.10;;
51814;SDS011;37874;53.158;6.766;2024-02-15T19:34:38;3.97;;;1.55;;
51814;SDS011;37874;53.158;6.766;2024-02-15T19:37:06;2.95;;;1.27;;
51814;SDS011;37874;53.158;6.766;2024-02-15T19:43:38;2.22;;;1.20;;
51814;SDS011;37874;53.158;6.766;2024-02-15T19:46:05;3.10;;;1.30;;
51814;SDS011;37874;53.158;6.766;2024-02-15T19:55:04;4.93;;;1.40;;
51814;SDS011;37874;53.158;6.766;2024-02-15T20:07:59;2.15;;;1.10;;
51814;SDS011;37874;53.158;6.766;2024-02-15T20:14:05;2.70;;;1.10;;
51814;SDS011;37874;53.158;6.766;2024-02-15T20:23:02;3.20;;;1.30;;
51814;SDS011;37874;53.158;6.766;2024-02-15T20:29:09;3.55;;;1.10;;
51814;SDS011;37874;53.158;6.766;2024-02-15T20:31:52;2.05;;;0.98;;
51814;SDS011;37874;53.158;6.766;2024-02-15T20:34:34;2.20;;;1.20;;
51814;SDS011;37874;53.158;6.766;2024-02-15T20:54:01;3.80;;;1.13;;
51814;SDS011;37874;53.158;6.766;2024-02-15T21:00:09;2.05;;;0.90;;
51814;SDS011;37874;53.158;6.766;2024-02-15T21:05:33;2.15;;;1.10;;
51814;SDS011;37874;53.158;6.766;2024-02-15T21:08:01;3.15;;;1.13;;
51814;SDS011;37874;53.158;6.766;2024-02-15T21:10:44;3.80;;;1.20;;
51814;SDS011;37874;53.158;6.766;2024-02-15T21:13:19;4.25;;;1.42;;
51814;SDS011;37874;53.158;6.766;2024-02-15T21:15:49;2.10;;;1.30;;
51814;SDS011;37874;53.158;6.766;2024-02-15T21:18:28;2.10;;;1.10;;
51814;SDS011;37874;53.158;6.766;2024-02-15T21:21:08;1.88;;;1.00;;
51814;SDS011;37874;53.158;6.766;2024-02-15T21:23:40;2.83;;;1.23;;
51814;SDS011;37874;53.158;6.766;2024-02-15T21:26:11;3.65;;;1.10;;
51814;SDS011;37874;53.158;6.766;2024-02-15T21:28:46;2.03;;;1.02;;
51814;SDS011;37874;53.158;6.766;2024-02-15T21:31:19;5.05;;;1.23;;
51814;SDS011;37874;53.158;6.766;2024-02-15T21:36:44;2.33;;;1.00;;
51814;SDS011;37874;53.158;6.766;2024-02-15T21:39:10;2.58;;;1.20;;
51814;SDS011;37874;53.158;6.766;2024-02-15T21:41:39;2.38;;;1.13;;
51814;SDS011;37874;53.158;6.766;2024-02-15T21:47:10;3.13;;;1.38;;
51814;SDS011;37874;53.158;6.766;2024-02-15T21:52:51;2.80;;;1.23;;
51814;SDS011;37874;53.158;6.766;2024-02-15T21:55:27;2.83;;;1.10;;
51814;SDS011;37874;53.158;6.766;2024-02-15T22:03:22;2.75;;;0.93;;
51814;SDS011;37874;53.158;6.766;2024-02-15T22:11:36;2.42;;;1.10;;
51814;SDS011;37874;53.158;6.766;2024-02-15T22:14:02;3.05;;;1.10;;
51814;SDS011;37874;53.158;6.766;2024-02-15T22:16:34;2.58;;;1.10;;
51814;SDS011;37874;53.158;6.766;2024-02-15T22:19:07;2.35;;;1.00;;
51814;SDS011;37874;53.158;6.766;2024-02-15T22:27:52;2.45;;;1.10;;
51814;SDS011;37874;53.158;6.766;2024-02-15T22:33:01;2.45;;;1.10;;
51814;SDS011;37874;53.158;6.766;2024-02-15T22:35:30;2.83;;;1.10;;
51814;SDS011;37874;53.158;6.766;2024-02-15T22:40:29;3.08;;;0.95;;
51814;SDS011;37874;53.158;6.766;2024-02-15T22:42:56;2.22;;;0.88;;
51814;SDS011;37874;53.158;6.766;2024-02-15T22:45:25;2.40;;;1.10;;
51814;SDS011;37874;53.158;6.766;2024-02-15T22:48:04;2.33;;;0.90;;
51814;SDS011;37874;53.158;6.766;2024-02-15T22:50:31;2.05;;;1.10;;
51814;SDS011;37874;53.158;6.766;2024-02-15T22:52:57;1.75;;;1.08;;
51814;SDS011;37874;53.158;6.766;2024-02-15T22:55:23;2.10;;;0.90;;
51814;SDS011;37874;53.158;6.766;2024-02-15T23:03:56;1.95;;;0.90;;
51814;SDS011;37874;53.158;6.766;2024-02-15T23:12:45;1.70;;;0.90;;
51814;SDS011;37874;53.158;6.766;2024-02-15T23:15:26;2.33;;;0.90;;
51814;SDS011;37874;53.158;6.766;2024-02-15T23:27:35;2.10;;;1.00;;
51814;SDS011;37874;53.158;6.766;2024-02-15T23:33:19;2.30;;;0.85;;
51814;SDS011;37874;53.158;6.766;2024-02-15T23:35:56;1.70;;;0.85;;
51814;SDS011;37874;53.158;6.766;2024-02-15T23:38:40;2.22;;;0.90;;
51814;SDS011;37874;53.158;6.766;2024-02-15T23:51:10;2.50;;;1.00;;
51814;SDS011;37874;53.158;6.766;2024-02-15T23:56:50;3.10;;;0.93;;
51814;SDS011;37874;53.158;6.766;2024-02-15T23:59:16;2.75;;;1.00;;
